Time;durP1;ratioP1;P1;durP2;ratioP2;P2;SDS_P1;SDS_P2;PMS_P1;PMS_P2;Temp;Humidity;BMP_temperature;BMP_pressure;BME280_temperature;BME280_humidity;BME280_pressure;Samples;Min_cycle;Max_cycle;Signal;HPM_P1;HPM_P2
2020/12/19 00:01:37;;;;;;;28.85;17.27;;;5.20;99.90;;;;;;5041110;28;20192;-51
2020/12/19 00:04:04;;;;;;;26.02;17.30;;;5.50;99.90;;;;;;5032433;28;20605;-50
2020/12/19 00:06:30;;;;;;;27.60;15.35;;;5.30;99.90;;;;;;5031790;28;20224;-50
2020/12/19 00:08:57;;;;;;;20.90;16.25;;;5.20;99.90;;;;;;5031594;28;20263;-51
2020/12/19 00:11:23;;;;;;;28.05;17.33;;;5.10;99.90;;;;;;5031158;28;20227;-51
2020/12/19 00:13:50;;;;;;;24.48;16.80;;;5.20;99.90;;;;;;5031119;28;20197;-51
2020/12/19 00:16:17;;;;;;;24.27;16.80;;;5.50;99.90;;;;;;5029920;28;20200;-51
2020/12/19 00:18:45;;;;;;;29.95;16.83;;;5.40;99.90;;;;;;5038400;28;20236;-51
2020/12/19 00:21:12;;;;;;;28.67;16.48;;;5.50;99.90;;;;;;5052179;28;20226;-50
2020/12/19 00:23:38;;;;;;;26.73;16.08;;;5.30;99.90;;;;;;5050888;28;20204;-51
2020/12/19 00:26:05;;;;;;;28.17;17.67;;;5.10;99.90;;;;;;5054791;28;20212;-52
2020/12/19 00:28:32;;;;;;;27.08;17.60;;;5.30;99.90;;;;;;5054348;28;20219;-49
2020/12/19 00:30:58;;;;;;;27.30;17.02;;;5.10;99.90;;;;;;5055227;28;20188;-51
2020/12/19 00:33:25;;;;;;;28.45;16.13;;;5.10;99.90;;;;;;5052939;28;20207;-50
2020/12/19 00:35:52;;;;;;;31.02;19.00;;;5.30;99.90;;;;;;5054437;28;20216;-50
2020/12/19 00:38:19;;;;;;;26.38;16.52;;;5.30;99.90;;;;;;5054306;28;20223;-50
2020/12/19 00:40:46;;;;;;;24.27;16.02;;;5.20;99.90;;;;;;5052916;28;20218;-50
2020/12/19 00:43:12;;;;;;;28.42;17.80;;;5.30;99.90;;;;;;5053887;28;20668;-49
2020/12/19 00:45:39;;;;;;;26.30;16.98;;;5.20;99.90;;;;;;5054163;28;20216;-50
2020/12/19 00:48:05;;;;;;;23.42;16.85;;;5.30;99.90;;;;;;5054019;28;20254;-51
2020/12/19 00:50:32;;;;;;;26.30;17.02;;;5.00;99.90;;;;;;5052236;28;20227;-50
2020/12/19 00:52:59;;;;;;;27.85;18.52;;;5.30;99.90;;;;;;5053622;28;20189;-50
2020/12/19 00:55:25;;;;;;;26.20;18.33;;;5.30;99.90;;;;;;5053900;28;20262;-49
2020/12/19 00:57:52;;;;;;;26.92;17.55;;;5.10;99.90;;;;;;5052671;28;20223;-50
2020/12/19 01:00:18;;;;;;;25.67;16.20;;;5.10;99.90;;;;;;5053343;28;20201;-49
2020/12/19 01:02:45;;;;;;;24.70;16.05;;;5.20;99.90;;;;;;5032560;28;20323;-50
2020/12/19 01:05:12;;;;;;;27.92;16.80;;;5.00;99.90;;;;;;5032534;28;20601;-50
2020/12/19 01:07:39;;;;;;;24.85;16.77;;;4.80;99.90;;;;;;5033758;28;20220;-50
2020/12/19 01:10:08;;;;;;;26.90;19.35;;;5.30;99.90;;;;;;5034088;28;20669;-50
2020/12/19 01:12:35;;;;;;;27.75;16.63;;;5.20;99.90;;;;;;5033893;28;20600;-52
2020/12/19 01:15:01;;;;;;;26.85;16.58;;;4.50;99.90;;;;;;5033761;28;20572;-51
2020/12/19 01:17:28;;;;;;;23.23;15.23;;;5.10;99.90;;;;;;5033455;28;20212;-51
2020/12/19 01:19:54;;;;;;;24.15;16.85;;;5.10;99.90;;;;;;5040146;28;21555;-52
2020/12/19 01:22:21;;;;;;;26.95;16.08;;;5.10;99.90;;;;;;5053028;28;20243;-51
2020/12/19 01:24:47;;;;;;;26.70;16.48;;;4.70;99.90;;;;;;5053287;28;20198;-50
2020/12/19 01:27:14;;;;;;;26.40;16.95;;;4.90;99.90;;;;;;5053319;28;20282;-50
2020/12/19 01:29:41;;;;;;;27.50;17.58;;;4.80;99.90;;;;;;5053103;28;20199;-50
2020/12/19 01:32:07;;;;;;;23.52;15.60;;;5.00;99.90;;;;;;5053173;28;20224;-49
2020/12/19 01:34:34;;;;;;;29.25;17.75;;;5.00;99.90;;;;;;5052860;28;20673;-50
2020/12/19 01:37:00;;;;;;;24.60;15.93;;;4.90;99.90;;;;;;5053553;28;20714;-50
2020/12/19 01:39:27;;;;;;;30.85;17.98;;;4.70;99.90;;;;;;5053026;28;20200;-50
2020/12/19 01:41:54;;;;;;;25.95;16.45;;;4.90;99.90;;;;;;5053161;28;20196;-51
2020/12/19 01:44:21;;;;;;;24.63;17.05;;;4.80;99.90;;;;;;5052620;28;20203;-49
2020/12/19 01:46:56;;;;;;;27.75;16.38;;;4.70;99.90;;;;;;5053037;28;20216;-50
2020/12/19 01:49:24;;;;;;;27.48;16.63;;;4.70;99.90;;;;;;5050000;28;20615;-50
2020/12/19 01:51:52;;;;;;;26.55;17.42;;;4.90;99.90;;;;;;5053104;28;20692;-50
2020/12/19 01:54:21;;;;;;;31.48;16.80;;;4.70;99.90;;;;;;5052711;28;20511;-51
2020/12/19 01:56:53;;;;;;;29.05;17.05;;;4.90;99.90;;;;;;5052812;28;20188;-51
2020/12/19 01:59:21;;;;;;;24.55;17.20;;;4.80;99.90;;;;;;5052621;28;20215;-51
2020/12/19 02:01:50;;;;;;;27.08;17.15;;;4.40;99.90;;;;;;5039654;28;20584;-51
2020/12/19 02:04:17;;;;;;;27.60;16.27;;;4.10;99.90;;;;;;5032347;28;20203;-50
2020/12/19 02:06:46;;;;;;;26.15;16.85;;;4.50;99.90;;;;;;5032610;28;20808;-49
2020/12/19 02:09:14;;;;;;;29.15;17.52;;;4.90;99.90;;;;;;5032908;28;20298;-50
2020/12/19 02:11:42;;;;;;;34.13;17.55;;;4.20;99.90;;;;;;5033072;28;20582;-50
2020/12/19 02:14:09;;;;;;;26.88;15.68;;;4.90;99.90;;;;;;5032232;28;20197;-50
2020/12/19 02:16:37;;;;;;;26.05;16.23;;;4.60;99.90;;;;;;5032682;28;20185;-51
2020/12/19 02:19:12;;;;;;;24.88;16.63;;;4.60;99.90;;;;;;5031534;28;20221;-51
2020/12/19 02:21:42;;;;;;;26.30;16.25;;;4.90;99.90;;;;;;5032424;28;20669;-51
2020/12/19 02:24:10;;;;;;;25.63;16.10;;;4.80;99.90;;;;;;5032053;28;20558;-51
2020/12/19 02:26:36;;;;;;;24.60;15.95;;;4.70;99.90;;;;;;5032342;28;20266;-51
2020/12/19 02:29:04;;;;;;;31.85;17.30;;;4.60;99.90;;;;;;5047500;28;20751;-51
2020/12/19 02:31:31;;;;;;;26.38;17.42;;;4.60;99.90;;;;;;5032269;28;20239;-50
2020/12/19 02:33:57;;;;;;;30.00;17.70;;;4.70;99.90;;;;;;5031969;28;20192;-50
2020/12/19 02:36:24;;;;;;;30.90;17.35;;;4.70;99.90;;;;;;5032166;28;20191;-50
2020/12/19 02:38:50;;;;;;;25.10;17.25;;;5.00;99.90;;;;;;5032094;28;20216;-50
2020/12/19 02:41:18;;;;;;;30.48;17.95;;;4.50;99.90;;;;;;5031455;28;20207;-50
2020/12/19 02:43:52;;;;;;;25.55;17.17;;;5.00;99.90;;;;;;5031664;28;20677;-50
2020/12/19 02:46:18;;;;;;;26.45;15.80;;;4.70;99.90;;;;;;5031968;28;20220;-50
2020/12/19 02:48:45;;;;;;;28.20;16.20;;;4.70;99.90;;;;;;5031081;28;20208;-50
2020/12/19 02:51:11;;;;;;;26.05;18.30;;;4.40;99.90;;;;;;5050492;28;20200;-50
2020/12/19 02:53:38;;;;;;;31.17;16.92;;;4.40;99.90;;;;;;5051752;28;20200;-50
2020/12/19 02:56:04;;;;;;;27.73;17.67;;;4.40;99.90;;;;;;5051780;28;20195;-49
2020/12/19 02:58:32;;;;;;;27.30;16.42;;;4.40;99.90;;;;;;5051725;28;20277;-50
2020/12/19 03:00:58;;;;;;;25.35;16.65;;;4.40;99.90;;;;;;5046179;28;20208;-50
2020/12/19 03:03:25;;;;;;;27.02;16.77;;;4.60;99.90;;;;;;5031723;28;20216;-50
2020/12/19 03:05:51;;;;;;;27.48;17.77;;;4.60;99.90;;;;;;5031974;28;20220;-50
2020/12/19 03:08:18;;;;;;;24.88;18.42;;;4.60;99.90;;;;;;5051875;22;20231;-45
2020/12/19 03:10:44;;;;;;;27.67;17.08;;;4.60;99.90;;;;;;5051890;28;20215;-44
2020/12/19 03:13:11;;;;;;;26.35;15.60;;;4.70;99.90;;;;;;5051530;28;20222;-45
2020/12/19 03:15:38;;;;;;;24.85;16.60;;;4.60;99.90;;;;;;5051984;28;20196;-45
2020/12/19 03:18:05;;;;;;;27.17;15.68;;;4.60;99.90;;;;;;5051049;28;20227;-46
2020/12/19 03:20:31;;;;;;;29.08;17.95;;;4.50;99.90;;;;;;5071657;28;20200;-44
2020/12/19 03:22:58;;;;;;;28.13;16.83;;;4.40;99.90;;;;;;5070271;28;20210;-46
2020/12/19 03:25:26;;;;;;;29.20;16.27;;;4.40;99.90;;;;;;5071443;28;20226;-45
2020/12/19 03:27:52;;;;;;;25.65;15.20;;;4.50;99.90;;;;;;5071926;28;20707;-45
2020/12/19 03:30:19;;;;;;;22.55;16.38;;;4.70;99.90;;;;;;5071555;28;20579;-44
2020/12/19 03:32:46;;;;;;;24.42;16.23;;;4.50;99.90;;;;;;5071233;28;20198;-44
2020/12/19 03:35:13;;;;;;;25.98;16.45;;;4.30;99.90;;;;;;5070345;28;20199;-44
2020/12/19 03:37:39;;;;;;;27.75;16.95;;;4.50;99.90;;;;;;5071055;28;20676;-45
2020/12/19 03:40:06;;;;;;;22.60;15.32;;;4.60;99.90;;;;;;5070487;28;20199;-44
2020/12/19 03:42:32;;;;;;;28.08;16.73;;;4.60;99.90;;;;;;5070785;28;20248;-45
2020/12/19 03:44:59;;;;;;;24.38;16.80;;;4.70;99.90;;;;;;5069900;28;20225;-44
2020/12/19 03:47:25;;;;;;;24.58;16.27;;;4.40;99.90;;;;;;5071284;28;20240;-47
2020/12/19 03:49:53;;;;;;;26.40;16.20;;;4.40;99.90;;;;;;5067141;28;20675;-45
2020/12/19 03:52:19;;;;;;;30.27;16.83;;;4.20;99.90;;;;;;5071709;28;20454;-44
2020/12/19 03:54:46;;;;;;;27.00;16.85;;;4.50;99.90;;;;;;5075493;28;20192;-45
2020/12/19 03:57:12;;;;;;;23.55;16.02;;;4.60;99.90;;;;;;5075222;28;20195;-45
2020/12/19 03:59:39;;;;;;;25.70;16.77;;;4.30;99.90;;;;;;5075007;28;20211;-44
2020/12/19 04:02:05;;;;;;;25.55;16.25;;;4.60;99.90;;;;;;5059820;28;20206;-45
2020/12/19 04:04:32;;;;;;;25.40;17.23;;;4.30;99.90;;;;;;5054730;28;20203;-46
2020/12/19 04:06:59;;;;;;;24.70;17.00;;;4.40;99.90;;;;;;5054720;28;20230;-45
2020/12/19 04:09:26;;;;;;;26.52;14.98;;;4.20;99.90;;;;;;5054407;28;20235;-45
2020/12/19 04:11:52;;;;;;;26.25;16.52;;;4.30;99.90;;;;;;5060771;28;20188;-45
2020/12/19 04:14:19;;;;;;;26.20;17.10;;;4.60;99.90;;;;;;5061114;28;20200;-46
2020/12/19 04:16:47;;;;;;;24.10;16.88;;;4.10;99.90;;;;;;5056093;28;20238;-46
2020/12/19 04:19:13;;;;;;;24.67;15.05;;;4.10;99.90;;;;;;5061894;28;20237;-47
2020/12/19 04:21:40;;;;;;;27.30;17.30;;;4.40;99.90;;;;;;5074476;28;20195;-46
2020/12/19 04:24:07;;;;;;;28.05;14.88;;;4.40;99.90;;;;;;5074389;28;20194;-47
2020/12/19 04:26:34;;;;;;;26.13;15.88;;;4.20;99.90;;;;;;5074452;28;20264;-47
2020/12/19 04:29:00;;;;;;;25.92;16.50;;;4.10;99.90;;;;;;5074309;28;20715;-46
2020/12/19 04:31:27;;;;;;;25.73;16.40;;;4.20;99.90;;;;;;5074168;28;20195;-47
2020/12/19 04:33:53;;;;;;;24.75;16.27;;;4.20;99.90;;;;;;5073905;28;20214;-46
2020/12/19 04:36:19;;;;;;;22.90;15.13;;;4.20;99.90;;;;;;5074275;28;20187;-46
2020/12/19 04:38:46;;;;;;;27.42;15.68;;;3.70;99.90;;;;;;5072877;28;20233;-46
2020/12/19 04:41:13;;;;;;;26.20;15.95;;;3.80;99.90;;;;;;5074198;28;20211;-47
2020/12/19 04:43:40;;;;;;;26.90;15.13;;;4.00;99.90;;;;;;5074032;28;20245;-44
2020/12/19 04:46:07;;;;;;;24.05;14.98;;;4.20;99.90;;;;;;5072750;28;20222;-45
2020/12/19 04:48:33;;;;;;;24.70;15.30;;;4.00;99.90;;;;;;5069466;28;20215;-45
2020/12/19 04:51:00;;;;;;;22.88;16.30;;;4.20;99.90;;;;;;5074112;28;20206;-45
2020/12/19 04:53:26;;;;;;;26.27;15.98;;;4.20;99.90;;;;;;5073723;28;20198;-45
2020/12/19 04:55:53;;;;;;;21.40;15.05;;;4.30;99.90;;;;;;5074012;28;20317;-45
2020/12/19 04:58:20;;;;;;;27.08;15.27;;;4.00;99.90;;;;;;5073823;28;20215;-45
2020/12/19 05:00:47;;;;;;;24.67;15.85;;;4.00;99.90;;;;;;5069455;28;20656;-45
2020/12/19 05:03:15;;;;;;;29.40;16.52;;;4.30;99.90;;;;;;5052999;28;20262;-44
2020/12/19 05:05:43;;;;;;;25.33;15.57;;;4.00;99.90;;;;;;5054297;28;20260;-45
2020/12/19 05:08:10;;;;;;;26.80;15.95;;;4.10;99.90;;;;;;5053627;28;20277;-45
2020/12/19 05:10:37;;;;;;;25.00;15.93;;;4.40;99.90;;;;;;5053970;28;20640;-45
2020/12/19 05:13:03;;;;;;;27.98;15.35;;;4.20;99.90;;;;;;5053535;28;20199;-46
2020/12/19 05:15:31;;;;;;;25.92;15.20;;;4.30;99.90;;;;;;5054554;28;20208;-46
2020/12/19 05:17:59;;;;;;;30.45;15.93;;;4.30;99.90;;;;;;5069053;28;20215;-45
2020/12/19 05:20:28;;;;;;;25.90;15.98;;;4.30;99.90;;;;;;5074517;28;20555;-46
2020/12/19 05:22:55;;;;;;;24.98;15.30;;;4.40;99.90;;;;;;5073428;28;20651;-46
2020/12/19 05:25:23;;;;;;;24.10;14.25;;;4.10;99.90;;;;;;5073520;28;20207;-46
2020/12/19 05:27:50;;;;;;;27.77;16.77;;;4.20;99.90;;;;;;5072068;28;20215;-46
2020/12/19 05:30:19;;;;;;;30.60;16.13;;;3.90;99.90;;;;;;5073272;28;20627;-46
2020/12/19 05:32:48;;;;;;;27.23;15.82;;;4.30;99.90;;;;;;5072780;28;20513;-46
2020/12/19 05:35:15;;;;;;;27.90;15.00;;;4.30;99.90;;;;;;5072990;28;20191;-47
2020/12/19 05:37:42;;;;;;;20.58;13.80;;;4.20;99.90;;;;;;5072789;28;20276;-47
2020/12/19 05:40:10;;;;;;;25.60;15.30;;;4.20;99.90;;;;;;5073285;28;20294;-46
2020/12/19 05:42:38;;;;;;;29.42;16.35;;;4.20;99.90;;;;;;5072276;28;20682;-46
2020/12/19 05:45:14;;;;;;;23.67;14.23;;;4.10;99.90;;;;;;5072650;28;20188;-46
2020/12/19 05:47:41;;;;;;;25.83;15.38;;;3.80;99.90;;;;;;5068307;28;20206;-47
2020/12/19 05:50:09;;;;;;;24.23;15.20;;;4.00;99.90;;;;;;5072708;28;20191;-46
2020/12/19 05:52:37;;;;;;;28.27;16.15;;;4.00;99.90;;;;;;5072168;28;20659;-46
2020/12/19 05:55:07;;;;;;;26.38;16.05;;;4.00;99.90;;;;;;5072722;28;20575;-46
2020/12/19 05:57:35;;;;;;;27.90;17.10;;;4.20;99.90;;;;;;5072550;28;20191;-47
2020/12/19 06:00:06;;;;;;;26.58;17.02;;;4.10;99.90;;;;;;5072725;28;20642;-47
2020/12/19 06:02:34;;;;;;;23.40;15.20;;;4.30;99.90;;;;;;5053181;28;20660;-46
2020/12/19 06:05:02;;;;;;;26.05;16.60;;;4.20;99.90;;;;;;5051363;28;20692;-46
2020/12/19 06:07:35;;;;;;;24.27;15.05;;;4.00;99.90;;;;;;5052394;28;20592;-46
2020/12/19 06:10:03;;;;;;;26.08;14.80;;;3.30;99.90;;;;;;5052442;28;20275;-45
2020/12/19 06:12:45;;;;;;;24.02;14.32;;;4.00;99.90;;;;;;5050570;28;20660;-46
2020/12/19 06:15:23;;;;;;;26.48;15.88;;;3.90;99.90;;;;;;5051303;28;20661;-46
2020/12/19 06:17:53;;;;;;;27.35;15.48;;;4.30;99.90;;;;;;5058311;28;20238;-46
2020/12/19 06:20:20;;;;;;;25.17;14.02;;;4.30;99.90;;;;;;5072573;28;20206;-46
2020/12/19 06:22:48;;;;;;;25.75;15.80;;;4.20;99.90;;;;;;5072707;28;20191;-46
2020/12/19 06:25:40;;;;;;;23.92;15.50;;;3.90;99.90;;;;;;5072586;28;20320;-46
2020/12/19 06:28:07;;;;;;;27.05;15.98;;;4.20;99.90;;;;;;5072502;28;20583;-47
2020/12/19 06:30:34;;;;;;;27.65;16.08;;;4.10;99.90;;;;;;5072960;28;20195;-47
2020/12/19 06:33:14;;;;;;;27.55;15.98;;;4.00;99.90;;;;;;5071982;28;20191;-46
2020/12/19 06:35:53;;;;;;;28.00;15.48;;;3.80;99.90;;;;;;5072085;28;20191;-46
2020/12/19 06:38:43;;;;;;;26.13;15.50;;;3.80;99.90;;;;;;5072002;28;20214;-47
2020/12/19 06:41:10;;;;;;;33.95;18.08;;;4.00;99.90;;;;;;5070419;28;20621;-47
2020/12/19 06:43:37;;;;;;;29.10;17.75;;;3.90;99.90;;;;;;5071429;28;20237;-47
2020/12/19 06:46:03;;;;;;;25.73;15.98;;;3.80;99.90;;;;;;5067905;28;20211;-47
2020/12/19 06:48:31;;;;;;;27.95;15.80;;;4.10;99.90;;;;;;5071790;28;20249;-47
2020/12/19 06:51:00;;;;;;;27.92;16.63;;;3.90;99.90;;;;;;5072108;28;20278;-45
2020/12/19 06:53:28;;;;;;;26.05;16.48;;;3.90;99.90;;;;;;5071399;28;20187;-45
2020/12/19 06:55:56;;;;;;;27.10;17.60;;;4.10;99.90;;;;;;5071763;28;20187;-45
2020/12/19 06:58:33;;;;;;;28.98;16.98;;;3.80;99.90;;;;;;5072995;28;20207;-45
2020/12/19 07:01:00;;;;;;;26.75;15.70;;;4.10;99.90;;;;;;5068179;28;20198;-45
2020/12/19 07:03:38;;;;;;;24.77;15.68;;;4.00;99.90;;;;;;5053778;28;20200;-44
2020/12/19 07:06:15;;;;;;;27.23;15.93;;;4.10;99.90;;;;;;5053505;28;20215;-44
2020/12/19 07:08:43;;;;;;;25.70;16.58;;;4.10;99.90;;;;;;5053824;28;20219;-46
2020/12/19 07:11:21;;;;;;;30.55;16.90;;;3.90;99.90;;;;;;5053360;28;20196;-45
2020/12/19 07:13:51;;;;;;;28.83;15.95;;;3.80;99.90;;;;;;5051391;28;20188;-45
2020/12/19 07:16:46;;;;;;;29.45;16.40;;;4.00;99.90;;;;;;5049667;28;20188;-44
2020/12/19 07:19:19;;;;;;;27.27;16.73;;;4.30;99.90;;;;;;5031470;28;20216;-45
2020/12/19 07:21:46;;;;;;;32.65;17.63;;;4.10;99.90;;;;;;5031632;28;20197;-45
2020/12/19 07:24:13;;;;;;;30.13;19.05;;;4.00;99.90;;;;;;5031182;28;20193;-45
2020/12/19 07:26:40;;;;;;;32.03;19.15;;;3.60;99.90;;;;;;5033424;28;20223;-44
2020/12/19 07:29:17;;;;;;;32.10;19.50;;;4.10;99.90;;;;;;5035375;28;20224;-46
2020/12/19 07:31:46;;;;;;;31.92;20.08;;;4.10;99.90;;;;;;5034441;28;20250;-45
2020/12/19 07:34:12;;;;;;;27.63;17.55;;;4.30;99.90;;;;;;5043208;28;20235;-46
2020/12/19 07:36:40;;;;;;;31.15;19.02;;;3.40;99.90;;;;;;5055662;28;20200;-46
2020/12/19 07:39:08;;;;;;;30.02;18.88;;;4.00;99.90;;;;;;5056155;28;20278;-45
2020/12/19 07:41:35;;;;;;;30.10;19.02;;;4.00;99.90;;;;;;5056977;28;20196;-45
2020/12/19 07:44:21;;;;;;;28.60;18.20;;;3.90;99.90;;;;;;5056357;28;20207;-44
2020/12/19 07:46:52;;;;;;;25.33;16.48;;;4.20;99.90;;;;;;5054665;28;20212;-45
2020/12/19 07:49:34;;;;;;;23.80;16.67;;;4.00;99.90;;;;;;5074666;28;20222;-44
2020/12/19 07:52:11;;;;;;;23.95;14.70;;;3.40;99.90;;;;;;5075812;28;20191;-46
2020/12/19 07:54:39;;;;;;;22.00;15.77;;;4.00;99.90;;;;;;5075319;28;20195;-45
2020/12/19 07:57:06;;;;;;;26.10;16.42;;;3.60;99.90;;;;;;5075642;28;20192;-45
2020/12/19 07:59:35;;;;;;;25.50;16.60;;;3.90;99.90;;;;;;5076558;28;20632;-45
2020/12/19 08:02:03;;;;;;;27.00;17.38;;;4.20;99.90;;;;;;5061551;28;20204;-46
2020/12/19 08:04:31;;;;;;;24.90;16.63;;;4.10;99.90;;;;;;5055154;28;20192;-45
2020/12/19 08:06:59;;;;;;;26.40;15.65;;;4.00;99.90;;;;;;5055721;28;20216;-46
2020/12/19 08:09:26;;;;;;;26.05;17.45;;;4.00;99.90;;;;;;5055764;28;20281;-46
2020/12/19 08:11:53;;;;;;;26.85;16.70;;;4.10;99.90;;;;;;5056870;28;20188;-45
2020/12/19 08:14:21;;;;;;;27.20;17.40;;;4.10;99.90;;;;;;5055552;28;20664;-46
2020/12/19 08:16:49;;;;;;;25.77;16.38;;;4.40;99.90;;;;;;5060901;28;20188;-47
2020/12/19 08:19:23;;;;;;;29.83;17.45;;;4.30;99.90;;;;;;5074245;28;20222;-47
2020/12/19 08:21:58;;;;;;;21.67;15.15;;;3.90;99.90;;;;;;5074593;28;20198;-46
2020/12/19 08:24:25;;;;;;;23.83;16.55;;;4.20;99.90;;;;;;5073916;28;20678;-47
2020/12/19 08:27:25;;;;;;;28.38;15.65;;;4.60;99.90;;;;;;5074435;28;20203;-46
2020/12/19 08:30:00;;;;;;;26.70;16.33;;;4.20;99.90;;;;;;5074109;28;20220;-47
2020/12/19 08:32:29;;;;;;;25.25;15.60;;;4.30;99.90;;;;;;5073906;28;20190;-47
2020/12/19 08:34:55;;;;;;;25.90;16.63;;;4.60;99.90;;;;;;5074154;28;20199;-47
2020/12/19 08:37:22;;;;;;;27.77;18.27;;;4.30;99.90;;;;;;5073429;28;20187;-44
2020/12/19 08:40:05;;;;;;;32.28;18.58;;;4.40;99.90;;;;;;5074613;28;20265;-47
2020/12/19 08:42:33;;;;;;;29.23;18.58;;;4.50;99.90;;;;;;5074154;28;20191;-46
2020/12/19 08:45:17;;;;;;;33.95;18.38;;;4.40;99.90;;;;;;5075409;28;20199;-46
2020/12/19 08:47:45;;;;;;;25.17;15.88;;;4.30;99.90;;;;;;5070616;28;20223;-46
2020/12/19 08:50:12;;;;;;;29.10;17.65;;;4.60;99.90;;;;;;5074590;28;20215;-47
2020/12/19 08:52:39;;;;;;;27.13;15.57;;;4.50;99.90;;;;;;5072613;28;20195;-46
2020/12/19 08:55:05;;;;;;;28.35;18.70;;;4.40;99.90;;;;;;5074005;28;20233;-47
2020/12/19 08:57:33;;;;;;;31.00;17.17;;;4.40;99.90;;;;;;5073908;28;20648;-47
2020/12/19 09:00:13;;;;;;;26.00;16.70;;;4.70;99.90;;;;;;5074449;28;20573;-47
2020/12/19 09:02:41;;;;;;;22.83;15.40;;;4.60;99.90;;;;;;5053704;28;21207;-46
2020/12/19 09:05:09;;;;;;;24.10;15.18;;;4.80;99.90;;;;;;5053750;28;20214;-46
2020/12/19 09:07:36;;;;;;;23.85;17.38;;;4.70;99.90;;;;;;5053062;28;20238;-47
2020/12/19 09:10:24;;;;;;;27.23;16.95;;;4.80;99.90;;;;;;5054133;28;20196;-46
2020/12/19 09:13:20;;;;;;;22.10;14.70;;;4.80;99.90;;;;;;5053144;28;20220;-46
2020/12/19 09:15:48;;;;;;;24.90;15.98;;;4.90;99.90;;;;;;5053448;28;20206;-46
2020/12/19 09:18:19;;;;;;;23.45;15.57;;;5.00;99.90;;;;;;5062072;28;20230;-46
2020/12/19 09:20:51;;;;;;;22.50;15.38;;;5.20;99.90;;;;;;5072738;28;20691;-47
2020/12/19 09:23:17;;;;;;;24.13;15.80;;;5.10;99.90;;;;;;5073235;28;20203;-45
2020/12/19 09:25:45;;;;;;;23.52;14.13;;;5.10;99.90;;;;;;5073398;28;20269;-46
2020/12/19 09:28:11;;;;;;;26.52;16.65;;;5.40;99.90;;;;;;5073634;28;20234;-45
2020/12/19 09:30:38;;;;;;;23.02;15.60;;;5.20;99.90;;;;;;5073506;28;20833;-45
2020/12/19 09:33:05;;;;;;;23.50;15.40;;;5.10;99.90;;;;;;5072385;28;20231;-46
2020/12/19 09:35:31;;;;;;;24.55;16.20;;;5.20;99.90;;;;;;5073130;28;20743;-46
2020/12/19 09:37:59;;;;;;;23.75;15.48;;;5.10;99.90;;;;;;5072829;28;20284;-45
2020/12/19 09:40:26;;;;;;;23.15;16.17;;;5.40;99.90;;;;;;5073133;28;20579;-46
2020/12/19 09:42:52;;;;;;;22.63;14.18;;;5.30;99.90;;;;;;5074566;28;20723;-45
2020/12/19 09:45:19;;;;;;;20.70;15.05;;;5.70;99.90;;;;;;5074036;28;20195;-46
2020/12/19 09:47:46;;;;;;;20.60;14.38;;;4.70;99.90;;;;;;5072164;28;20300;-46
2020/12/19 09:50:13;;;;;;;20.05;14.35;;;5.40;99.90;;;;;;5072889;28;20188;-45
2020/12/19 09:52:40;;;;;;;18.48;14.00;;;5.40;99.90;;;;;;5072743;28;20230;-45
2020/12/19 09:55:09;;;;;;;23.27;15.05;;;5.70;99.90;;;;;;5073168;28;20226;-45
2020/12/19 09:57:37;;;;;;;21.02;14.55;;;5.50;99.90;;;;;;5072614;28;20648;-45
2020/12/19 10:00:05;;;;;;;21.13;14.52;;;5.90;99.90;;;;;;5072583;28;20789;-46
2020/12/19 10:02:38;;;;;;;20.35;14.60;;;5.40;99.90;;;;;;5052752;28;20257;-46
2020/12/19 10:05:05;;;;;;;17.63;13.20;;;5.60;99.90;;;;;;5053302;28;20196;-45
2020/12/19 10:07:31;;;;;;;18.27;12.77;;;5.70;99.90;;;;;;5052169;28;20262;-46
2020/12/19 10:09:58;;;;;;;19.63;13.70;;;5.90;99.90;;;;;;5052905;28;20261;-45
2020/12/19 10:12:25;;;;;;;20.67;14.95;;;5.70;99.90;;;;;;5052770;28;20195;-46
2020/12/19 10:14:52;;;;;;;21.40;13.55;;;5.90;99.90;;;;;;5052694;28;20202;-47
2020/12/19 10:17:19;;;;;;;22.48;14.35;;;5.80;99.90;;;;;;5054212;28;20188;-45
2020/12/19 10:19:45;;;;;;;19.27;13.68;;;5.90;99.90;;;;;;5072127;28;20621;-45
2020/12/19 10:22:12;;;;;;;18.40;13.25;;;6.00;99.90;;;;;;5072106;28;20249;-46
2020/12/19 10:24:38;;;;;;;18.08;12.95;;;5.80;99.90;;;;;;5071713;28;20191;-45
2020/12/19 10:27:05;;;;;;;18.27;12.40;;;6.10;99.90;;;;;;5071904;28;20597;-47
2020/12/19 10:29:32;;;;;;;17.92;13.73;;;6.30;99.90;;;;;;5072628;28;20497;-44
2020/12/19 10:31:59;;;;;;;17.00;12.02;;;5.50;99.90;;;;;;5071925;28;20188;-46
2020/12/19 10:34:25;;;;;;;16.92;12.40;;;5.80;99.90;;;;;;5071294;28;20203;-47
2020/12/19 10:36:52;;;;;;;16.45;12.52;;;6.10;99.90;;;;;;5071990;28;20194;-46
2020/12/19 10:39:19;;;;;;;16.48;12.52;;;6.20;99.90;;;;;;5072029;28;20212;-45
2020/12/19 10:41:48;;;;;;;16.90;13.13;;;6.20;99.90;;;;;;5070016;28;20745;-44
2020/12/19 10:44:16;;;;;;;17.27;11.97;;;6.10;99.90;;;;;;5073048;28;20338;-45
2020/12/19 10:46:43;;;;;;;15.05;12.10;;;6.30;99.90;;;;;;5070116;28;20485;-47
2020/12/19 10:49:10;;;;;;;16.73;12.30;;;6.50;99.90;;;;;;5071628;28;20307;-47
2020/12/19 10:51:36;;;;;;;17.50;12.80;;;6.20;99.90;;;;;;5071603;28;20539;-47
2020/12/19 10:54:03;;;;;;;20.33;13.70;;;6.40;99.90;;;;;;5071479;28;20192;-45
2020/12/19 10:56:30;;;;;;;17.38;12.77;;;6.40;99.90;;;;;;5071313;28;20460;-46
2020/12/19 10:58:56;;;;;;;16.90;11.90;;;6.30;99.90;;;;;;5070381;28;20214;-47
2020/12/19 11:01:23;;;;;;;20.70;14.30;;;6.60;99.90;;;;;;5060804;28;20442;-45
2020/12/19 11:03:50;;;;;;;17.33;11.87;;;6.50;99.90;;;;;;5050752;28;20437;-44
2020/12/19 11:06:21;;;;;;;16.67;11.73;;;6.40;99.90;;;;;;5050495;28;20514;-46
2020/12/19 11:08:48;;;;;;;16.20;12.10;;;6.60;99.90;;;;;;5050445;28;20467;-46
2020/12/19 11:11:16;;;;;;;18.73;13.40;;;6.50;99.90;;;;;;5051098;28;20449;-47
2020/12/19 11:13:43;;;;;;;16.90;11.53;;;6.70;99.90;;;;;;5050506;28;20431;-46
2020/12/19 11:16:10;;;;;;;14.93;11.30;;;6.50;99.90;;;;;;5050962;28;20437;-46
2020/12/19 11:18:37;;;;;;;18.33;12.77;;;7.00;99.90;;;;;;5065188;28;20536;-46
2020/12/19 11:21:05;;;;;;;14.37;11.93;;;6.80;99.90;;;;;;5070996;28;20499;-46
2020/12/19 11:23:32;;;;;;;20.50;13.20;;;6.70;99.90;;;;;;5070599;28;20430;-46
2020/12/19 11:25:58;;;;;;;18.40;13.27;;;6.30;99.90;;;;;;5070578;28;20470;-46
2020/12/19 11:28:24;;;;;;;15.97;12.07;;;6.70;99.90;;;;;;5071982;28;20443;-47
2020/12/19 11:30:51;;;;;;;20.73;15.10;;;6.80;99.90;;;;;;5072229;28;20425;-46
2020/12/19 11:33:18;;;;;;;18.00;13.10;;;7.10;99.90;;;;;;5071017;28;20426;-46
2020/12/19 11:35:44;;;;;;;17.23;11.07;;;6.80;99.90;;;;;;5070780;28;20465;-47
2020/12/19 11:38:11;;;;;;;17.47;12.40;;;6.70;99.90;;;;;;5070577;28;20455;-45
2020/12/19 11:40:38;;;;;;;19.17;13.10;;;6.90;99.90;;;;;;5068958;28;20425;-45
2020/12/19 11:43:05;;;;;;;15.47;11.40;;;6.90;99.90;;;;;;5069930;28;20463;-45
2020/12/19 11:45:31;;;;;;;15.67;11.50;;;6.90;99.90;;;;;;5070359;28;20434;-45
2020/12/19 11:47:58;;;;;;;17.43;13.63;;;6.90;99.90;;;;;;5068920;28;20486;-45
2020/12/19 11:50:24;;;;;;;15.10;11.90;;;6.90;99.90;;;;;;5071126;28;20430;-45
2020/12/19 11:52:51;;;;;;;16.27;11.50;;;6.90;99.90;;;;;;5069135;28;20446;-45
2020/12/19 11:55:18;;;;;;;16.30;12.27;;;6.90;99.90;;;;;;5070796;28;20434;-47
2020/12/19 11:57:45;;;;;;;20.37;12.50;;;7.10;99.90;;;;;;5070433;28;20807;-45
2020/12/19 12:00:11;;;;;;;21.88;14.05;;;6.90;99.90;;;;;;5070978;28;20454;-47
2020/12/19 12:02:38;;;;;;;16.30;12.53;;;7.20;99.90;;;;;;5050397;28;20205;-46
2020/12/19 12:05:04;;;;;;;16.27;12.53;;;7.30;99.90;;;;;;5050269;28;20525;-46
2020/12/19 12:07:31;;;;;;;15.73;12.77;;;7.30;99.90;;;;;;5049855;28;20533;-45
2020/12/19 12:09:57;;;;;;;18.23;13.40;;;7.40;99.90;;;;;;5049628;28;20426;-47
2020/12/19 12:12:25;;;;;;;17.57;11.70;;;7.40;99.90;;;;;;5051268;28;20406;-46
2020/12/19 12:14:51;;;;;;;17.67;12.20;;;7.20;99.90;;;;;;5053579;28;20442;-45
2020/12/19 12:17:18;;;;;;;17.80;11.63;;;7.10;99.90;;;;;;5059413;28;20461;-47
2020/12/19 12:19:44;;;;;;;20.20;12.43;;;7.30;99.90;;;;;;5073749;28;20512;-46
2020/12/19 12:22:11;;;;;;;17.20;12.30;;;7.20;99.90;;;;;;5073622;28;20817;-44
2020/12/19 12:24:37;;;;;;;19.23;12.60;;;7.20;99.90;;;;;;5073141;28;20454;-45
2020/12/19 12:27:04;;;;;;;20.73;11.40;;;7.30;99.90;;;;;;5073807;28;20490;-46
2020/12/19 12:29:31;;;;;;;19.10;12.23;;;7.50;99.90;;;;;;5072582;28;21079;-45
2020/12/19 12:31:58;;;;;;;15.70;11.60;;;7.50;99.90;;;;;;5069519;28;20479;-44
2020/12/19 12:34:24;;;;;;;14.27;10.60;;;7.50;99.90;;;;;;5072630;28;20765;-44
2020/12/19 12:36:51;;;;;;;12.97;11.13;;;7.30;99.90;;;;;;5073181;28;20442;-44
2020/12/19 12:39:17;;;;;;;14.80;11.30;;;7.40;99.90;;;;;;5072824;28;20455;-45
2020/12/19 12:41:45;;;;;;;17.40;11.57;;;7.60;99.90;;;;;;5073649;28;20429;-49